Time;durP1;ratioP1;P1;durP2;ratioP2;P2;SDS_P1;SDS_P2;PMS_P1;PMS_P2;Temp;Humidity;BMP_temperature;BMP_pressure;BME280_temperature;BME280_humidity;BME280_pressure;Samples;Min_cycle;Max_cycle;Signal;HPM_P1;HPM_P2
2023/07/26 04:01:44;;;;;;;1.30;1.20;;;14.10;97.30;;;;;;5417778;23;20486;-88
2023/07/26 04:04:12;;;;;;;3.70;1.60;;;14.10;97.30;;;;;;4947376;29;20435;-88
2023/07/26 04:06:44;;;;;;;1.20;1.10;;;14.00;97.30;;;;;;4948909;28;20199;-88
2023/07/26 04:09:12;;;;;;;1.10;1.00;;;14.00;97.30;;;;;;4947202;29;20523;-88
2023/07/26 04:11:38;;;;;;;1.37;1.27;;;14.00;97.30;;;;;;4946072;23;20503;-72
2023/07/26 04:14:03;;;;;;;1.30;1.20;;;14.00;97.30;;;;;;4932662;29;20846;-72
2023/07/26 04:16:29;;;;;;;1.50;1.07;;;14.00;97.30;;;;;;4931578;29;20644;-72
2023/07/26 04:18:54;;;;;;;1.60;1.20;;;14.00;97.30;;;;;;4932800;29;20172;-71
2023/07/26 04:21:20;;;;;;;1.30;1.20;;;14.00;97.30;;;;;;4931250;29;20439;-71
2023/07/26 04:23:46;;;;;;;1.00;0.90;;;14.00;97.30;;;;;;4931804;29;20199;-72
2023/07/26 04:26:12;;;;;;;1.30;1.20;;;14.00;97.30;;;;;;4932753;29;20220;-72
2023/07/26 04:28:38;;;;;;;1.10;1.00;;;14.00;97.30;;;;;;4932563;29;20955;-72
2023/07/26 04:31:03;;;;;;;1.03;0.93;;;14.00;97.30;;;;;;4932399;29;20208;-72
2023/07/26 04:33:30;;;;;;;1.03;0.93;;;14.00;97.30;;;;;;4932495;29;20439;-72
2023/07/26 04:35:57;;;;;;;1.40;1.33;;;14.10;97.30;;;;;;4932443;29;20739;-72
2023/07/26 04:38:23;;;;;;;1.10;1.10;;;14.10;97.30;;;;;;4932208;29;20475;-71
2023/07/26 04:40:49;;;;;;;1.10;1.00;;;14.10;97.30;;;;;;4932489;29;20478;-71
2023/07/26 04:43:19;;;;;;;3.30;1.67;;;14.10;97.30;;;;;;4930775;29;20428;-70
2023/07/26 04:45:49;;;;;;;1.60;1.50;;;14.10;97.30;;;;;;4928478;29;20204;-71
2023/07/26 04:48:19;;;;;;;1.20;1.10;;;14.10;97.30;;;;;;4930648;29;20481;-71
2023/07/26 04:50:47;;;;;;;0.80;0.80;;;14.10;97.30;;;;;;4929078;29;20464;-71
2023/07/26 04:53:12;;;;;;;3.10;1.70;;;14.20;97.30;;;;;;4930904;29;20420;-71
2023/07/26 04:55:46;;;;;;;1.07;1.00;;;14.20;97.30;;;;;;4931058;29;20458;-71
2023/07/26 04:58:12;;;;;;;1.10;1.00;;;14.20;97.30;;;;;;4929625;29;20223;-73
2023/07/26 05:00:39;;;;;;;1.37;1.27;;;14.20;97.30;;;;;;4931577;29;20498;-72
2023/07/26 05:03:05;;;;;;;1.27;1.17;;;14.20;97.30;;;;;;4938662;29;20184;-72
2023/07/26 05:05:35;;;;;;;1.50;1.40;;;14.20;97.30;;;;;;4931972;29;20472;-71
2023/07/26 05:08:01;;;;;;;1.30;1.20;;;14.30;97.30;;;;;;4930352;29;20519;-69
2023/07/26 05:10:27;;;;;;;1.63;1.53;;;14.30;97.30;;;;;;4931545;29;20470;-69
2023/07/26 05:12:53;;;;;;;3.27;1.40;;;14.30;97.30;;;;;;4932030;29;20861;-68
2023/07/26 05:15:19;;;;;;;1.97;1.27;;;14.30;97.30;;;;;;4931323;29;20196;-70
2023/07/26 05:17:45;;;;;;;1.37;1.30;;;14.30;97.30;;;;;;4927850;29;20515;-70
2023/07/26 05:20:11;;;;;;;4.97;1.53;;;14.30;97.30;;;;;;4931289;29;20187;-69
2023/07/26 05:22:37;;;;;;;0.87;0.80;;;14.30;97.30;;;;;;4930066;29;20458;-67
2023/07/26 05:25:02;;;;;;;1.10;1.00;;;14.40;97.30;;;;;;4929936;29;20476;-69
2023/07/26 05:27:28;;;;;;;1.30;1.00;;;14.40;97.30;;;;;;4930051;29;20423;-69
2023/07/26 05:29:54;;;;;;;1.00;0.90;;;14.40;97.30;;;;;;4930108;29;20183;-69
2023/07/26 05:32:20;;;;;;;1.80;1.20;;;14.40;97.30;;;;;;4931197;29;20465;-69
2023/07/26 05:34:45;;;;;;;1.17;1.07;;;14.50;97.30;;;;;;4930049;29;20188;-70
2023/07/26 05:37:11;;;;;;;1.20;1.10;;;14.50;97.30;;;;;;4932038;29;20482;-69
2023/07/26 05:39:37;;;;;;;1.13;1.03;;;14.60;97.30;;;;;;4931702;29;20176;-71
2023/07/26 05:42:02;;;;;;;1.03;1.00;;;14.60;97.30;;;;;;4931365;29;20695;-69
2023/07/26 05:44:28;;;;;;;1.17;1.13;;;14.70;97.30;;;;;;4931294;29;20635;-69
2023/07/26 05:46:53;;;;;;;1.60;1.23;;;14.70;97.30;;;;;;4931472;29;20302;-70
2023/07/26 05:49:19;;;;;;;1.30;1.20;;;14.70;97.30;;;;;;4929815;29;20184;-69
2023/07/26 05:51:44;;;;;;;1.63;1.53;;;14.80;97.30;;;;;;4929012;29;20199;-72
2023/07/26 05:54:10;;;;;;;1.00;0.90;;;14.80;97.30;;;;;;4929605;29;20275;-69
2023/07/26 05:56:36;;;;;;;1.00;0.90;;;14.90;97.30;;;;;;4929816;29;20274;-69
2023/07/26 05:59:01;;;;;;;1.00;0.90;;;14.90;97.30;;;;;;4930849;29;20183;-69
2023/07/26 06:01:27;;;;;;;1.20;1.10;;;15.00;97.30;;;;;;4930978;29;20223;-65
2023/07/26 06:03:53;;;;;;;1.57;1.40;;;15.00;97.30;;;;;;4930809;29;20192;-71
2023/07/26 06:06:19;;;;;;;1.47;1.47;;;15.00;97.30;;;;;;4937728;29;20274;-70
2023/07/26 06:08:45;;;;;;;0.90;0.80;;;15.00;97.30;;;;;;4932476;29;20188;-68
2023/07/26 06:11:10;;;;;;;1.00;1.00;;;15.10;97.30;;;;;;4933018;29;20481;-67
2023/07/26 06:13:36;;;;;;;1.43;1.40;;;15.10;97.30;;;;;;4934551;29;20176;-69
2023/07/26 06:16:01;;;;;;;8.00;1.10;;;15.10;97.30;;;;;;4934292;29;20267;-70
2023/07/26 06:18:27;;;;;;;1.07;0.97;;;15.20;97.30;;;;;;4933330;29;20551;-72
2023/07/26 06:20:53;;;;;;;1.20;1.10;;;15.30;97.30;;;;;;4934488;29;20219;-65
2023/07/26 06:23:18;;;;;;;1.00;0.90;;;15.30;97.30;;;;;;4933346;29;20187;-70
2023/07/26 06:25:44;;;;;;;1.67;1.57;;;15.30;97.30;;;;;;4933238;29;20238;-68
2023/07/26 06:28:09;;;;;;;1.63;1.50;;;15.30;97.30;;;;;;4934443;29;20183;-70
2023/07/26 06:30:35;;;;;;;1.13;1.03;;;15.30;97.30;;;;;;4934571;29;20207;-67
2023/07/26 06:33:01;;;;;;;1.20;1.10;;;15.30;97.30;;;;;;4934525;29;20271;-68
2023/07/26 06:35:26;;;;;;;1.20;1.10;;;15.30;97.30;;;;;;4935464;29;20195;-66
2023/07/26 06:37:52;;;;;;;1.00;0.90;;;15.30;97.30;;;;;;4932194;29;20701;-68
2023/07/26 06:40:17;;;;;;;1.43;1.33;;;15.30;97.30;;;;;;4932579;29;20599;-67
2023/07/26 06:42:43;;;;;;;1.93;1.00;;;15.30;97.30;;;;;;4933777;29;20195;-68
2023/07/26 06:45:09;;;;;;;1.77;1.67;;;15.20;97.30;;;;;;4934244;29;20770;-68
2023/07/26 06:47:35;;;;;;;1.47;1.47;;;15.20;97.30;;;;;;4932621;29;20424;-67
2023/07/26 06:50:01;;;;;;;1.57;1.53;;;15.20;97.30;;;;;;4934292;29;20518;-69
2023/07/26 06:52:30;;;;;;;1.20;1.10;;;15.30;97.30;;;;;;4934000;29;20211;-68
2023/07/26 06:54:55;;;;;;;1.27;1.20;;;15.20;97.30;;;;;;4932863;29;20332;-67
2023/07/26 06:57:21;;;;;;;1.67;1.63;;;15.20;97.30;;;;;;4932640;29;21012;-66
2023/07/26 06:59:46;;;;;;;7.50;1.33;;;15.20;97.30;;;;;;4933162;29;20695;-65
2023/07/26 07:02:12;;;;;;;1.07;0.97;;;15.20;97.30;;;;;;4932778;29;20208;-66
2023/07/26 07:04:37;;;;;;;1.40;1.30;;;15.10;97.30;;;;;;4933426;29;20548;-70
2023/07/26 07:07:03;;;;;;;1.40;1.30;;;15.10;97.30;;;;;;4934590;29;20219;-66
2023/07/26 07:09:29;;;;;;;1.30;1.20;;;15.10;97.30;;;;;;4934034;29;20226;-66
2023/07/26 07:11:54;;;;;;;1.13;1.07;;;15.20;97.30;;;;;;4934112;29;20722;-65
2023/07/26 07:14:20;;;;;;;1.20;1.10;;;15.20;97.30;;;;;;4934326;29;20188;-65
2023/07/26 07:16:46;;;;;;;1.20;1.10;;;15.20;97.30;;;;;;4933077;29;20191;-66
2023/07/26 07:19:11;;;;;;;1.37;1.27;;;15.20;97.30;;;;;;4940424;29;20187;-66
2023/07/26 07:21:37;;;;;;;1.37;1.30;;;15.20;97.30;;;;;;4931701;29;20684;-65
2023/07/26 07:24:04;;;;;;;1.20;1.10;;;15.20;97.30;;;;;;4932830;29;20188;-66
2023/07/26 07:26:30;;;;;;;1.30;1.20;;;15.30;97.30;;;;;;4933347;29;20216;-65
2023/07/26 07:28:56;;;;;;;1.00;0.90;;;15.30;97.30;;;;;;4933668;29;20427;-68
2023/07/26 07:31:21;;;;;;;1.83;1.80;;;15.30;97.30;;;;;;4932290;29;20862;-68
2023/07/26 07:33:47;;;;;;;1.87;1.80;;;15.40;97.30;;;;;;4932951;29;20184;-66
2023/07/26 07:36:17;;;;;;;1.00;1.00;;;15.40;97.30;;;;;;4934597;29;20715;-67
2023/07/26 07:38:44;;;;;;;1.30;1.20;;;15.50;97.30;;;;;;4932689;29;20672;-67
2023/07/26 07:41:10;;;;;;;1.20;1.10;;;15.60;97.30;;;;;;4932343;29;20491;-66
2023/07/26 07:43:35;;;;;;;1.30;1.20;;;15.70;97.30;;;;;;4933682;29;20458;-66
2023/07/26 07:46:01;;;;;;;0.90;0.80;;;15.80;97.30;;;;;;4933534;29;20211;-67
2023/07/26 07:48:27;;;;;;;1.23;1.13;;;15.90;97.30;;;;;;4933420;29;20196;-67
2023/07/26 07:50:54;;;;;;;1.50;1.40;;;16.00;97.30;;;;;;4933560;29;20282;-69
2023/07/26 07:53:20;;;;;;;2.47;1.70;;;16.10;97.30;;;;;;4933589;29;20179;-68
2023/07/26 07:55:45;;;;;;;1.50;1.40;;;16.20;97.30;;;;;;4931792;29;20439;-67
2023/07/26 07:58:11;;;;;;;2.60;1.27;;;16.30;97.30;;;;;;4931972;29;20184;-68
2023/07/26 08:00:36;;;;;;;1.40;1.30;;;16.30;97.30;;;;;;4932110;29;20214;-66
2023/07/26 08:03:03;;;;;;;1.30;1.20;;;16.40;97.30;;;;;;4932419;29;20223;-66
2023/07/26 08:05:29;;;;;;;1.00;0.90;;;16.40;97.30;;;;;;4933414;29;20208;-66
2023/07/26 08:07:54;;;;;;;1.30;1.20;;;16.40;97.30;;;;;;4932549;29;20953;-67
2023/07/26 08:10:21;;;;;;;1.27;1.17;;;16.40;97.30;;;;;;4932946;29;20239;-67
2023/07/26 08:12:46;;;;;;;1.00;0.90;;;16.40;97.30;;;;;;4931977;29;20250;-67
2023/07/26 08:15:13;;;;;;;1.20;1.07;;;16.40;96.50;;;;;;4933426;29;20788;-66
2023/07/26 08:17:39;;;;;;;1.00;0.90;;;16.50;96.90;;;;;;4931931;29;20258;-66
2023/07/26 08:20:05;;;;;;;2.33;1.47;;;16.50;97.30;;;;;;4932427;29;20494;-66
2023/07/26 08:22:31;;;;;;;0.97;0.87;;;16.50;97.20;;;;;;4932510;29;20920;-67
2023/07/26 08:24:56;;;;;;;1.50;1.00;;;16.70;96.40;;;;;;4933021;29;20519;-66
2023/07/26 08:27:22;;;;;;;1.93;1.43;;;16.80;96.50;;;;;;4932247;29;20176;-66
2023/07/26 08:29:47;;;;;;;1.23;1.13;;;16.90;95.90;;;;;;4931603;29;20187;-68
2023/07/26 08:32:13;;;;;;;1.30;1.20;;;17.00;95.30;;;;;;4932700;29;20208;-67
2023/07/26 08:34:39;;;;;;;1.23;1.13;;;17.10;95.50;;;;;;4930545;29;20176;-65
2023/07/26 08:37:04;;;;;;;0.97;0.93;;;17.20;95.50;;;;;;4932814;29;20184;-66
2023/07/26 08:39:30;;;;;;;1.20;1.10;;;17.30;95.10;;;;;;4929808;29;20208;-67
2023/07/26 08:41:56;;;;;;;1.23;1.13;;;17.30;94.50;;;;;;4930107;29;20435;-69
2023/07/26 08:44:22;;;;;;;1.00;1.00;;;17.30;92.70;;;;;;4931183;29;20242;-67
2023/07/26 08:46:50;;;;;;;1.00;0.90;;;17.30;90.90;;;;;;4930876;29;20472;-68
2023/07/26 08:49:16;;;;;;;1.07;0.97;;;17.20;91.60;;;;;;4932784;29;20419;-66
2023/07/26 08:51:43;;;;;;;0.90;0.90;;;17.20;92.10;;;;;;4924481;29;20447;-65
2023/07/26 08:54:09;;;;;;;1.00;0.90;;;17.30;90.70;;;;;;4931310;29;20480;-66
2023/07/26 08:56:35;;;;;;;3.27;1.93;;;17.30;91.00;;;;;;4931135;29;20948;-66
2023/07/26 08:59:01;;;;;;;1.20;1.10;;;17.40;91.20;;;;;;4932389;29;20422;-72
2023/07/26 09:01:27;;;;;;;1.80;1.33;;;17.40;91.20;;;;;;4930592;29;20211;-68
2023/07/26 09:03:53;;;;;;;1.00;0.90;;;17.50;90.60;;;;;;4932333;29;20270;-67
2023/07/26 09:06:19;;;;;;;1.30;1.20;;;17.50;90.50;;;;;;4930524;29;21026;-66
2023/07/26 09:08:44;;;;;;;4.00;2.60;;;17.60;91.10;;;;;;4930922;29;20236;-66
2023/07/26 09:11:26;;;;;;;1.00;0.90;;;17.60;91.60;;;;;;4930469;29;20228;-65
2023/07/26 09:13:58;;;;;;;0.90;0.80;;;17.70;91.00;;;;;;4925956;29;20240;-64
2023/07/26 09:16:28;;;;;;;1.30;1.20;;;17.80;90.90;;;;;;4930507;29;20455;-66
2023/07/26 09:18:59;;;;;;;3.10;1.70;;;17.90;90.50;;;;;;4932419;29;20955;-66
2023/07/26 09:21:29;;;;;;;3.13;1.00;;;18.00;90.00;;;;;;4930284;29;20837;-68
2023/07/26 09:23:56;;;;;;;1.10;1.00;;;18.10;88.90;;;;;;4932148;29;20769;-67
2023/07/26 09:26:36;;;;;;;1.00;0.90;;;18.10;89.70;;;;;;4930328;29;20482;-66
2023/07/26 09:29:15;;;;;;;1.40;1.30;;;18.20;89.90;;;;;;4931914;29;20991;-69
2023/07/26 09:31:43;;;;;;;1.77;1.23;;;18.30;90.50;;;;;;4931161;29;20488;-67
2023/07/26 09:34:13;;;;;;;1.47;1.43;;;18.40;89.60;;;;;;4931938;29;20427;-65
2023/07/26 09:36:50;;;;;;;1.00;0.90;;;18.60;89.80;;;;;;4933873;29;20497;-65
2023/07/26 09:39:19;;;;;;;0.90;0.80;;;18.70;89.90;;;;;;4930078;29;20520;-65
2023/07/26 09:41:47;;;;;;;0.93;0.83;;;18.80;89.60;;;;;;4931271;29;20482;-69
2023/07/26 09:44:18;;;;;;;1.10;0.97;;;18.90;88.80;;;;;;4931778;29;20604;-63
2023/07/26 09:46:56;;;;;;;0.80;0.80;;;18.80;87.50;;;;;;4931528;29;20554;-64
2023/07/26 09:49:23;;;;;;;1.20;1.10;;;18.80;87.40;;;;;;4930531;29;20854;-65
2023/07/26 09:51:53;;;;;;;1.47;1.40;;;18.80;88.50;;;;;;4931439;29;20443;-65
2023/07/26 09:54:20;;;;;;;1.20;1.10;;;18.80;88.50;;;;;;4930287;29;20431;-66
2023/07/26 09:56:46;;;;;;;1.50;1.40;;;18.80;87.60;;;;;;4921371;29;20963;-64
2023/07/26 09:59:14;;;;;;;2.83;1.83;;;18.70;87.30;;;;;;4929231;29;20412;-66
2023/07/26 10:01:44;;;;;;;3.00;1.60;;;18.60;87.30;;;;;;4930228;29;20490;-66
2023/07/26 10:04:12;;;;;;;1.63;1.50;;;18.50;87.60;;;;;;4930181;29;20437;-66
2023/07/26 10:06:39;;;;;;;1.70;1.70;;;18.30;86.90;;;;;;4931065;29;20987;-67
2023/07/26 10:09:05;;;;;;;3.60;2.30;;;18.20;86.60;;;;;;4929939;29;20431;-65
2023/07/26 10:11:32;;;;;;;1.97;1.90;;;18.20;86.70;;;;;;4929503;29;20459;-66
2023/07/26 10:13:59;;;;;;;1.20;1.10;;;18.10;87.20;;;;;;4930005;29;20387;-68
2023/07/26 10:16:25;;;;;;;1.10;1.00;;;18.00;88.00;;;;;;4931145;29;20483;-66
2023/07/26 10:18:53;;;;;;;1.90;1.77;;;17.90;90.40;;;;;;4931431;29;20963;-66
2023/07/26 10:21:20;;;;;;;1.47;1.37;;;17.80;92.80;;;;;;4929687;29;20450;-67
2023/07/26 10:23:48;;;;;;;1.00;0.90;;;17.60;93.80;;;;;;4930958;29;20423;-66
2023/07/26 10:26:15;;;;;;;1.00;0.90;;;17.40;94.60;;;;;;4929837;29;20519;-65
2023/07/26 10:28:41;;;;;;;3.13;2.70;;;17.30;94.70;;;;;;4929488;29;20423;-66
2023/07/26 10:31:07;;;;;;;1.00;0.90;;;17.30;94.80;;;;;;4931699;29;20439;-66
2023/07/26 10:33:42;;;;;;;1.87;1.77;;;17.30;93.90;;;;;;4931099;29;20533;-66
2023/07/26 10:36:10;;;;;;;1.37;1.37;;;17.40;93.10;;;;;;4933996;29;20502;-66
2023/07/26 10:38:39;;;;;;;1.67;1.57;;;17.60;92.70;;;;;;4930926;29;20424;-67
2023/07/26 10:41:27;;;;;;;1.90;1.00;;;17.70;91.70;;;;;;4931152;29;20440;-67
2023/07/26 10:44:08;;;;;;;1.30;1.20;;;18.00;90.10;;;;;;4922503;29;20431;-67
2023/07/26 10:47:03;;;;;;;1.37;1.30;;;18.20;89.60;;;;;;4929473;29;20463;-66
2023/07/26 10:49:30;;;;;;;1.53;1.30;;;18.30;88.20;;;;;;4929685;29;20427;-66
2023/07/26 10:52:02;;;;;;;1.30;1.27;;;18.30;89.10;;;;;;4931900;29;20538;-63
2023/07/26 10:54:41;;;;;;;1.17;1.00;;;18.10;89.40;;;;;;4934580;29;20975;-66
2023/07/26 10:57:18;;;;;;;2.27;2.07;;;17.90;90.30;;;;;;4933325;29;20446;-65
2023/07/26 11:00:06;;;;;;;3.23;1.73;;;17.80;91.20;;;;;;4933353;29;20423;-64
2023/07/26 11:02:43;;;;;;;1.00;0.90;;;17.70;91.40;;;;;;4933348;29;20434;-64
2023/07/26 11:05:20;;;;;;;1.00;0.90;;;17.50;91.00;;;;;;4934778;29;20426;-70
2023/07/26 11:07:53;;;;;;;0.93;0.83;;;17.40;91.90;;;;;;4933406;29;20962;-66
2023/07/26 11:10:33;;;;;;;2.03;1.23;;;17.30;93.00;;;;;;4933609;29;20955;-64
2023/07/26 11:13:10;;;;;;;2.20;1.20;;;17.20;93.90;;;;;;4926394;29;20443;-66
2023/07/26 11:15:39;;;;;;;1.43;1.33;;;17.10;95.70;;;;;;4934361;29;20531;-66
2023/07/26 11:18:05;;;;;;;0.90;0.80;;;17.00;95.50;;;;;;4934374;29;20497;-66
2023/07/26 11:20:31;;;;;;;0.90;0.80;;;17.00;95.60;;;;;;4931744;29;20816;-69
2023/07/26 11:22:57;;;;;;;0.77;0.73;;;17.10;95.50;;;;;;4932847;29;20798;-69
2023/07/26 11:25:22;;;;;;;1.30;1.20;;;17.40;96.30;;;;;;4932945;29;20211;-69
2023/07/26 11:27:48;;;;;;;0.90;0.80;;;17.60;95.30;;;;;;4932747;29;20195;-66
2023/07/26 11:30:18;;;;;;;0.90;0.80;;;17.90;95.20;;;;;;4933082;29;20190;-67
2023/07/26 11:32:49;;;;;;;0.90;0.90;;;18.10;93.50;;;;;;4934401;29;20440;-64
2023/07/26 11:35:18;;;;;;;0.90;0.80;;;18.30;93.30;;;;;;4937111;29;20431;-66
2023/07/26 11:37:54;;;;;;;1.13;1.03;;;18.40;92.10;;;;;;4935291;28;20424;-67
2023/07/26 11:40:20;;;;;;;1.10;1.00;;;18.50;92.60;;;;;;4932619;29;20426;-69
2023/07/26 11:42:46;;;;;;;1.00;0.90;;;18.70;92.00;;;;;;4932292;29;20800;-70
2023/07/26 11:45:12;;;;;;;1.27;1.17;;;18.70;91.30;;;;;;4933668;29;20430;-67
2023/07/26 11:47:39;;;;;;;1.23;1.00;;;18.80;90.80;;;;;;4933429;29;20262;-66
2023/07/26 11:50:05;;;;;;;1.03;0.93;;;18.90;89.20;;;;;;4933602;29;20424;-63
2023/07/26 11:52:31;;;;;;;0.90;0.80;;;19.00;88.20;;;;;;4933436;29;20432;-68
2023/07/26 11:54:59;;;;;;;1.40;1.40;;;19.10;88.00;;;;;;4931647;29;20420;-65
2023/07/26 11:57:28;;;;;;;1.30;1.20;;;19.10;87.30;;;;;;4931304;29;20239;-67
2023/07/26 11:59:56;;;;;;;0.90;0.80;;;19.20;88.20;;;;;;4931346;29;20416;-67
2023/07/26 12:02:25;;;;;;;0.90;0.80;;;19.40;89.40;;;;;;4931156;29;21023;-67
2023/07/26 12:05:19;;;;;;;1.00;0.90;;;19.40;86.70;;;;;;4933314;29;21018;-64
2023/07/26 12:07:52;;;;;;;1.00;0.90;;;19.60;85.00;;;;;;4932123;29;20434;-66
2023/07/26 12:10:30;;;;;;;1.57;1.07;;;19.70;85.50;;;;;;4931463;29;20431;-66
2023/07/26 12:12:56;;;;;;;1.43;1.43;;;19.80;84.40;;;;;;4931245;29;20459;-68
2023/07/26 12:15:23;;;;;;;1.10;1.00;;;20.00;84.30;;;;;;4931331;29;20526;-67
2023/07/26 12:17:55;;;;;;;1.10;1.00;;;20.10;84.50;;;;;;4932463;29;20443;-69
2023/07/26 12:20:25;;;;;;;0.70;0.70;;;20.10;83.10;;;;;;4931129;29;20438;-64
2023/07/26 12:22:53;;;;;;;1.37;1.33;;;20.00;82.40;;;;;;4932630;29;20426;-67
2023/07/26 12:25:19;;;;;;;1.00;0.90;;;20.10;81.10;;;;;;4931260;29;21011;-66
2023/07/26 12:27:48;;;;;;;1.13;1.03;;;20.10;81.50;;;;;;4931134;29;20446;-69
2023/07/26 12:30:15;;;;;;;1.20;1.10;;;20.10;80.10;;;;;;4932260;29;20416;-65
2023/07/26 12:32:41;;;;;;;1.10;1.00;;;20.10;81.10;;;;;;4932064;29;20454;-66
2023/07/26 12:35:23;;;;;;;1.00;0.90;;;20.20;81.60;;;;;;4931196;29;20420;-67
2023/07/26 12:37:49;;;;;;;1.10;1.00;;;20.30;81.90;;;;;;4938055;29;20184;-71
2023/07/26 12:40:18;;;;;;;0.90;0.80;;;20.40;82.70;;;;;;4930894;29;20435;-71
2023/07/26 12:42:43;;;;;;;0.90;0.80;;;20.50;82.40;;;;;;4930662;29;20499;-69
2023/07/26 12:45:09;;;;;;;1.33;1.23;;;20.60;82.50;;;;;;4932255;29;20450;-64
2023/07/26 12:47:35;;;;;;;0.80;0.80;;;20.70;81.50;;;;;;4932421;29;20604;-66
2023/07/26 12:50:00;;;;;;;1.00;0.90;;;20.80;80.70;;;;;;4930980;29;20190;-64
2023/07/26 12:52:26;;;;;;;1.00;1.00;;;20.80;80.70;;;;;;4930857;29;20290;-68
2023/07/26 12:54:51;;;;;;;1.00;0.90;;;20.80;81.80;;;;;;4930751;29;20218;-71
2023/07/26 12:57:17;;;;;;;1.10;1.00;;;20.90;81.10;;;;;;4931073;29;20179;-68
2023/07/26 12:59:42;;;;;;;1.20;1.10;;;21.00;81.30;;;;;;4930565;29;20246;-70
2023/07/26 13:02:08;;;;;;;1.20;1.10;;;21.00;80.70;;;;;;4932339;29;20278;-73
2023/07/26 13:04:34;;;;;;;1.53;1.43;;;21.00;80.50;;;;;;4930876;29;20570;-72
2023/07/26 13:06:59;;;;;;;1.30;1.20;;;21.10;81.80;;;;;;4931056;29;20203;-70
2023/07/26 13:09:25;;;;;;;0.70;0.70;;;21.20;80.90;;;;;;4930658;29;20227;-69
2023/07/26 13:11:50;;;;;;;0.90;0.80;;;21.20;80.80;;;;;;4932510;29;20220;-68
2023/07/26 13:14:16;;;;;;;1.10;0.90;;;21.30;80.50;;;;;;4930696;29;20176;-71
2023/07/26 13:16:42;;;;;;;6.10;1.17;;;21.40;79.40;;;;;;4931845;29;20183;-70
2023/07/26 13:19:07;;;;;;;1.10;1.00;;;21.40;78.90;;;;;;4930694;29;20192;-69
2023/07/26 13:21:33;;;;;;;1.10;1.00;;;21.50;79.50;;;;;;4930575;29;20196;-69
2023/07/26 13:23:58;;;;;;;1.67;1.30;;;21.60;78.40;;;;;;4930402;29;20188;-73
2023/07/26 13:26:25;;;;;;;0.90;0.80;;;21.70;77.10;;;;;;4930009;29;20208;-68
2023/07/26 13:28:50;;;;;;;0.90;0.80;;;21.80;77.90;;;;;;4929795;29;20187;-69
2023/07/26 13:31:16;;;;;;;1.50;1.00;;;21.90;77.60;;;;;;4931977;29;20446;-71
2023/07/26 13:33:42;;;;;;;1.50;1.40;;;21.80;77.60;;;;;;4930437;29;20187;-71
2023/07/26 13:36:07;;;;;;;0.90;0.80;;;21.80;77.90;;;;;;4930795;29;20179;-67
2023/07/26 13:38:33;;;;;;;1.00;1.00;;;21.60;77.50;;;;;;4932346;29;20597;-69
2023/07/26 13:40:59;;;;;;;1.10;1.00;;;21.50;78.30;;;;;;4931552;29;20203;-67
2023/07/26 13:43:25;;;;;;;2.10;1.10;;;21.40;78.50;;;;;;4930399;29;20659;-70
2023/07/26 13:45:51;;;;;;;1.07;1.00;;;21.30;78.80;;;;;;4931258;29;20222;-69
2023/07/26 13:48:16;;;;;;;1.20;1.10;;;21.20;78.40;;;;;;4930533;29;20427;-70
2023/07/26 13:50:42;;;;;;;0.70;0.70;;;21.10;78.30;;;;;;4931504;29;20207;-71
2023/07/26 13:53:07;;;;;;;0.90;0.80;;;20.80;79.70;;;;;;4931522;29;20598;-70
2023/07/26 13:55:33;;;;;;;1.00;0.90;;;20.50;81.10;;;;;;4930683;29;20184;-71
2023/07/26 13:57:58;;;;;;;0.90;0.80;;;20.20;81.60;;;;;;4928210;29;20191;-73
2023/07/26 14:00:24;;;;;;;1.23;1.13;;;20.00;82.40;;;;;;4929767;29;20246;-68
2023/07/26 14:02:50;;;;;;;0.97;0.87;;;20.00;83.50;;;;;;4930011;29;20219;-72
2023/07/26 14:05:16;;;;;;;1.20;1.07;;;19.90;83.80;;;;;;4929527;29;20285;-75
2023/07/26 14:07:42;;;;;;;0.97;0.87;;;19.90;84.10;;;;;;4930852;29;20192;-73
2023/07/26 14:10:08;;;;;;;1.67;1.40;;;19.80;84.00;;;;;;4930913;29;20502;-74
2023/07/26 14:12:34;;;;;;;1.83;1.07;;;19.90;84.90;;;;;;4930954;29;20618;-71
2023/07/26 14:14:59;;;;;;;0.90;0.80;;;20.00;85.30;;;;;;4931333;29;20475;-72
2023/07/26 14:17:25;;;;;;;1.40;1.30;;;20.20;83.70;;;;;;4931861;29;20199;-71
2023/07/26 14:19:50;;;;;;;1.00;0.90;;;20.20;84.00;;;;;;4930019;29;20237;-71
2023/07/26 14:22:16;;;;;;;1.80;1.10;;;20.20;83.80;;;;;;4930430;29;20211;-72
2023/07/26 14:24:42;;;;;;;0.90;0.80;;;20.10;83.00;;;;;;4931632;29;20656;-74
2023/07/26 14:27:07;;;;;;;1.00;0.90;;;20.10;83.50;;;;;;4932714;29;20804;-72
2023/07/26 14:29:33;;;;;;;0.97;0.87;;;20.10;82.20;;;;;;4934064;29;20658;-73
2023/07/26 14:31:58;;;;;;;1.10;1.00;;;20.10;83.80;;;;;;4934156;29;20199;-72
2023/07/26 14:34:24;;;;;;;1.17;1.07;;;20.30;83.20;;;;;;4935583;29;20542;-72
2023/07/26 14:36:49;;;;;;;0.90;0.80;;;20.40;84.10;;;;;;4935021;29;20627;-71
2023/07/26 14:39:15;;;;;;;0.83;0.77;;;20.40;82.50;;;;;;4933827;29;20188;-70
2023/07/26 14:41:40;;;;;;;1.00;0.90;;;20.50;84.20;;;;;;4935322;29;20564;-70
2023/07/26 14:44:06;;;;;;;1.37;1.10;;;20.60;83.10;;;;;;4933777;29;20195;-71
2023/07/26 14:46:32;;;;;;;1.47;1.10;;;20.60;81.70;;;;;;4934847;29;20722;-70
2023/07/26 14:48:58;;;;;;;0.90;0.80;;;20.60;83.40;;;;;;4933779;29;20747;-70
2023/07/26 14:51:23;;;;;;;1.20;1.10;;;20.60;83.00;;;;;;4934469;29;20450;-72
2023/07/26 14:53:49;;;;;;;0.80;0.80;;;20.60;82.80;;;;;;4933486;29;20191;-71
2023/07/26 14:56:15;;;;;;;1.97;1.23;;;20.50;82.80;;;;;;4933519;29;20195;-71
2023/07/26 14:58:40;;;;;;;1.30;1.20;;;20.60;82.70;;;;;;4934723;29;20254;-69
2023/07/26 15:01:06;;;;;;;1.20;1.10;;;20.80;82.80;;;;;;4932640;29;20451;-69
2023/07/26 15:03:32;;;;;;;0.97;0.87;;;21.20;81.90;;;;;;4940403;29;20180;-70
2023/07/26 15:05:57;;;;;;;1.10;1.00;;;21.60;82.10;;;;;;4932470;29;20259;-72
2023/07/26 15:08:23;;;;;;;1.03;0.97;;;21.90;79.80;;;;;;4940266;29;20723;-66
2023/07/26 15:10:51;;;;;;;1.00;0.90;;;22.20;77.70;;;;;;4932314;29;20235;-70
2023/07/26 15:13:17;;;;;;;1.17;1.07;;;22.40;76.20;;;;;;4932640;29;20212;-69
2023/07/26 15:15:42;;;;;;;1.10;1.00;;;22.60;76.40;;;;;;4932394;29;20431;-69
2023/07/26 15:18:08;;;;;;;0.97;0.87;;;22.90;76.60;;;;;;4934054;29;20271;-69
2023/07/26 15:20:34;;;;;;;0.70;0.70;;;23.10;75.90;;;;;;4934281;29;20241;-70
2023/07/26 15:22:59;;;;;;;0.90;0.80;;;23.20;74.80;;;;;;4932895;29;20199;-68
2023/07/26 15:25:25;;;;;;;1.00;0.90;;;23.40;74.60;;;;;;4932644;29;20310;-67
2023/07/26 15:27:50;;;;;;;1.10;1.00;;;23.40;73.00;;;;;;4932545;29;20188;-69
2023/07/26 15:30:16;;;;;;;0.90;0.90;;;23.30;73.40;;;;;;4932500;29;20179;-69
2023/07/26 15:32:42;;;;;;;0.80;0.80;;;23.30;74.40;;;;;;4933887;29;20227;-69
2023/07/26 15:35:10;;;;;;;1.17;1.13;;;23.40;74.70;;;;;;4935593;29;20226;-68
2023/07/26 15:37:36;;;;;;;1.27;1.17;;;23.50;73.20;;;;;;4936199;28;20819;-70
2023/07/26 15:40:02;;;;;;;1.20;1.10;;;23.50;73.00;;;;;;4933792;29;20419;-69
2023/07/26 15:42:27;;;;;;;1.27;1.17;;;23.50;72.60;;;;;;4932359;29;20576;-71
2023/07/26 15:44:53;;;;;;;1.07;1.03;;;23.40;72.90;;;;;;4932088;29;20490;-70
2023/07/26 15:47:18;;;;;;;3.70;1.33;;;23.40;74.40;;;;;;4931912;29;20203;-70
2023/07/26 15:49:44;;;;;;;1.27;1.17;;;23.50;73.30;;;;;;4932136;29;20184;-69
2023/07/26 15:52:10;;;;;;;1.03;0.90;;;23.60;73.00;;;;;;4933095;29;20204;-69
2023/07/26 15:54:35;;;;;;;1.40;1.30;;;23.80;73.70;;;;;;4933444;29;20176;-67
2023/07/26 15:57:01;;;;;;;1.57;1.47;;;23.90;73.10;;;;;;4932073;29;20187;-69
2023/07/26 15:59:26;;;;;;;0.90;0.80;;;24.10;72.20;;;;;;4931771;29;20243;-68
2023/07/26 16:01:52;;;;;;;1.13;0.90;;;24.20;70.40;;;;;;4932860;29;20214;-72
2023/07/26 16:04:19;;;;;;;0.90;0.80;;;24.20;68.30;;;;;;4932204;29;20218;-69
2023/07/26 16:06:45;;;;;;;1.10;1.00;;;24.10;70.50;;;;;;4931558;29;20295;-69
2023/07/26 16:09:10;;;;;;;1.20;0.87;;;24.10;70.70;;;;;;4931749;29;20527;-68
2023/07/26 16:11:36;;;;;;;1.27;1.10;;;24.10;70.00;;;;;;4932763;29;20231;-68
2023/07/26 16:14:02;;;;;;;1.40;1.33;;;24.00;70.10;;;;;;4934433;29;20284;-68
2023/07/26 16:16:28;;;;;;;0.70;0.70;;;23.90;69.50;;;;;;4936796;29;20183;-69
2023/07/26 16:21:26;;;;;;;0.70;0.70;;;23.20;70.00;;;;;;4893623;29;20240;-72
2023/07/26 16:23:52;;;;;;;1.33;1.23;;;22.90;70.20;;;;;;4892417;29;20501;-73
2023/07/26 16:26:18;;;;;;;1.17;1.17;;;22.70;71.10;;;;;;4892332;29;20209;-72
2023/07/26 16:28:44;;;;;;;2.00;1.83;;;22.50;71.50;;;;;;4894087;29;20177;-72
2023/07/26 16:31:09;;;;;;;1.23;1.13;;;22.40;72.40;;;;;;4894564;29;20974;-71
2023/07/26 16:33:35;;;;;;;1.07;0.97;;;22.20;72.10;;;;;;4894798;29;20177;-71
2023/07/26 16:36:00;;;;;;;1.00;1.00;;;22.10;72.10;;;;;;4902969;29;20788;-72
2023/07/26 16:38:26;;;;;;;1.00;0.90;;;22.10;72.60;;;;;;4894802;29;20189;-71
2023/07/26 16:40:51;;;;;;;1.00;0.90;;;22.00;71.70;;;;;;4894171;29;20803;-72
2023/07/26 16:43:17;;;;;;;1.00;0.90;;;21.90;72.50;;;;;;4893682;29;20189;-72
2023/07/26 16:45:42;;;;;;;1.03;0.93;;;22.00;72.50;;;;;;4895666;29;20209;-74
2023/07/26 16:48:08;;;;;;;0.90;0.80;;;22.00;72.60;;;;;;4894128;29;20189;-72
2023/07/26 16:50:36;;;;;;;1.00;0.90;;;22.00;72.40;;;;;;4893351;29;20265;-72